Midland, TX

8:12 AM CDT on October 20, 2014 (GMT -0500)
Midland International | Change Station
CLOSE
Current Station
Airport
Location: Midland,
Elevation: 2861 ft
Nearby Weather Stations

Elev 2861 ft 31.95 °N, 102.21 °W | Updated 19 minutes ago

Partly Cloudy
Partly Cloudy
59 °F
Feels Like 59 °F
N
6
Wind Variable Wind from East

Today
High -- | Low -- °F
--% Chance of Precip.
Yesterday
High -- | Low -- °F
Precip. -- in
7:55 AM 7:10 PM
Waning Crescent, 11% visible
Pressure 30.00 in
Visibility 7.0 miles
Clouds Few 1500 ft
Dew Point 56 °F
Humidity 90%
Rainfall 0.00 in
Snow Depth Not available.
UV 0 out of 12
Pollen 5.50 out of 12
PM2.5 Good
Flu Activity Sporadic
METAR KMAF 201253Z 09005KT 7SM FEW015 15/13 A3009 RMK AO2 SLP158 T01500133

More Conditions Fewer Conditions

Pressure 30.00 in
Visibility 7.0 miles
Clouds Few 1500 ft
Dew Point 56 °F
Humidity 90%
Rainfall 0.00 in
Snow Depth Not available.
UV 0 out of 12
Pollen 5.50 out of 12
PM2.5 Good
Flu Activity Sporadic
METAR KMAF 201253Z 09005KT 7SM FEW015 15/13 A3009 RMK AO2 SLP158 T01500133

More Conditions Fewer Conditions

10-Day Weather Forecast

Almanac

Astronomy

Oct. 20, 2014 Rise Set
Actual Time 7:55 AM CDT 7:10 PM CDT
Civil Twilight 7:31 AM CDT 7:35 PM CDT
Nautical Twilight 7:02 AM CDT 8:03 PM CDT
Astronomical Twilight 6:34 AM CDT 8:32 PM CDT
Moon 4:57 AM CDT 5:25 PM CDT
Length of Visible Light 12h 04m
Length of Day
11h 14m
Waning Crescent, 11% of the Moon is Illuminated
Today
Waning Crescent
Oct 23
New
Oct 30
First Quarter
Nov 6
Full
Nov 14
Last Quarter

Today's Extremes

State Highs State Lows

Community

WunderPhotos

Upload Photos

1,763,372 photos uploaded!

Nearby

Air Quality

  Air Quality AQ Index Pollutant
Yesterday Good
PM2.5
Current Good
PM2.5
Monday Good
PM10
Monday Good
OZONE
Tuesday Good
PM10
Tuesday Good
OZONE

Snow Depth

Station Depth Elevation
No new snow has been reported.

Earthquake Activity

City Distance Mag. Time & Date
No recent earthquake activity has been reported nearby.
Minimum magnitude displayed is 2.5.

Coastal Water Temperatures

Place Temperature
No Stations Reporting

Nearby Weather Stations